KSUW/SUW METAR and TAF weather

Enter ICAO airport designator
Station Type Date Time Source
KSUW METAR 2020/10/22 02:55 UTC NOAA

KSUW 220255Z AUTO 00000KT 10SM BKN038 OVC110 01/M01 A3023 RMK AO2 T00101015


Station Type Date Time Source
KSUW Decoded METAR 2020/10/22 02:55 UTC NOAA

Superior, Richard I. Bong Airport, WI, United States (KSUW) 46-41-23N 092-05-41W
Oct 21, 2020 - 10:55 PM EDT / 2020.10.22 0255 UTC
Wind: Calm:0
Visibility: 10 mile(s):0
Sky conditions: overcast
Temperature: 33.8 F (1.0 C)
Dew Point: 29.3 F (-1.5 C)
Relative Humidity: 83%
Pressure (altimeter): 30.23 in. Hg (1023 hPa)
ob: KSUW 220255Z AUTO 00000KT 10SM BKN038 OVC110 01/M01 A3023 RMK AO2 T00101015
cycle: 3

Station Type Date Time Source
KSUW TAF UTC NOAA

Error!

Example: see airport list